sensor_id;sensor_type;location;lat;lon;timestamp;P1;durP1;ratioP1;P2;durP2;ratioP2
50104;SDS011;47690;39.202;-77.198;2022-07-23T00:02:54;5.60;;;5.05;;
50104;SDS011;47690;39.202;-77.198;2022-07-23T00:07:50;5.93;;;4.82;;
50104;SDS011;47690;39.202;-77.198;2022-07-23T00:27:49;5.68;;;5.10;;
50104;SDS011;47690;39.202;-77.198;2022-07-23T00:32:58;5.40;;;4.85;;
50104;SDS011;47690;39.202;-77.198;2022-07-23T01:17:44;6.30;;;5.63;;
50104;SDS011;47690;39.202;-77.198;2022-07-23T01:21:48;5.65;;;5.13;;
50104;SDS011;47690;39.202;-77.198;2022-07-23T01:24:49;6.15;;;5.57;;
50104;SDS011;47690;39.202;-77.198;2022-07-23T01:27:33;6.23;;;5.63;;
50104;SDS011;47690;39.202;-77.198;2022-07-23T01:30:21;7.07;;;6.07;;
50104;SDS011;47690;39.202;-77.198;2022-07-23T01:32:54;6.97;;;6.10;;
50104;SDS011;47690;39.202;-77.198;2022-07-23T01:35:47;6.75;;;6.05;;
50104;SDS011;47690;39.202;-77.198;2022-07-23T01:38:29;6.45;;;5.82;;
50104;SDS011;47690;39.202;-77.198;2022-07-23T01:44:10;6.50;;;5.90;;
50104;SDS011;47690;39.202;-77.198;2022-07-23T01:46:50;6.90;;;6.20;;
50104;SDS011;47690;39.202;-77.198;2022-07-23T01:49:25;6.88;;;6.25;;
50104;SDS011;47690;39.202;-77.198;2022-07-23T01:52:14;7.38;;;6.35;;
50104;SDS011;47690;39.202;-77.198;2022-07-23T01:55:08;7.90;;;6.28;;
50104;SDS011;47690;39.202;-77.198;2022-07-23T01:58:02;7.88;;;6.07;;
50104;SDS011;47690;39.202;-77.198;2022-07-23T02:01:18;7.15;;;6.28;;
50104;SDS011;47690;39.202;-77.198;2022-07-23T02:04:00;6.60;;;6.00;;
50104;SDS011;47690;39.202;-77.198;2022-07-23T02:07:05;7.90;;;6.03;;
50104;SDS011;47690;39.202;-77.198;2022-07-23T02:09:56;7.10;;;6.40;;
50104;SDS011;47690;39.202;-77.198;2022-07-23T02:15:53;6.68;;;5.82;;
50104;SDS011;47690;39.202;-77.198;2022-07-23T02:20:26;6.88;;;5.75;;
50104;SDS011;47690;39.202;-77.198;2022-07-23T02:24:30;6.10;;;5.38;;
50104;SDS011;47690;39.202;-77.198;2022-07-23T02:27:46;6.75;;;5.68;;
50104;SDS011;47690;39.202;-77.198;2022-07-23T02:30:30;6.70;;;6.00;;
50104;SDS011;47690;39.202;-77.198;2022-07-23T02:45:46;6.28;;;5.68;;
50104;SDS011;47690;39.202;-77.198;2022-07-23T03:00:19;5.80;;;5.30;;
50104;SDS011;47690;39.202;-77.198;2022-07-23T03:03:00;6.40;;;5.80;;
50104;SDS011;47690;39.202;-77.198;2022-07-23T03:05:34;7.28;;;6.57;;
50104;SDS011;47690;39.202;-77.198;2022-07-23T03:08:20;6.83;;;6.23;;
50104;SDS011;47690;39.202;-77.198;2022-07-23T03:10:52;11.93;;;6.38;;
50104;SDS011;47690;39.202;-77.198;2022-07-23T03:13:44;6.85;;;6.20;;
50104;SDS011;47690;39.202;-77.198;2022-07-23T03:16:19;7.22;;;6.53;;
50104;SDS011;47690;39.202;-77.198;2022-07-23T03:19:00;7.13;;;6.43;;
50104;SDS011;47690;39.202;-77.198;2022-07-23T03:21:34;7.40;;;6.70;;
50104;SDS011;47690;39.202;-77.198;2022-07-23T03:27:21;6.28;;;5.68;;
50104;SDS011;47690;39.202;-77.198;2022-07-23T03:29:57;7.60;;;6.90;;
50104;SDS011;47690;39.202;-77.198;2022-07-23T03:32:28;6.85;;;6.25;;
50104;SDS011;47690;39.202;-77.198;2022-07-23T03:35:01;7.70;;;7.00;;
50104;SDS011;47690;39.202;-77.198;2022-07-23T03:37:42;7.18;;;6.47;;
50104;SDS011;47690;39.202;-77.198;2022-07-23T03:40:19;6.70;;;6.03;;
50104;SDS011;47690;39.202;-77.198;2022-07-23T03:43:03;7.25;;;6.20;;
50104;SDS011;47690;39.202;-77.198;2022-07-23T03:53:42;6.53;;;5.50;;
50104;SDS011;47690;39.202;-77.198;2022-07-23T03:58:26;6.53;;;5.38;;
50104;SDS011;47690;39.202;-77.198;2022-07-23T04:36:41;5.80;;;5.30;;
50104;SDS011;47690;39.202;-77.198;2022-07-23T04:41:53;5.18;;;4.57;;
50104;SDS011;47690;39.202;-77.198;2022-07-23T04:47:11;6.25;;;5.03;;
50104;SDS011;47690;39.202;-77.198;2022-07-23T04:52:24;5.63;;;5.13;;
50104;SDS011;47690;39.202;-77.198;2022-07-23T04:57:40;5.88;;;5.28;;
50104;SDS011;47690;39.202;-77.198;2022-07-23T05:03:02;5.57;;;5.07;;
50104;SDS011;47690;39.202;-77.198;2022-07-23T05:13:04;5.72;;;5.20;;
50104;SDS011;47690;39.202;-77.198;2022-07-23T05:33:37;6.35;;;5.20;;
50104;SDS011;47690;39.202;-77.198;2022-07-23T05:37:17;6.05;;;5.45;;
50104;SDS011;47690;39.202;-77.198;2022-07-23T05:41:25;6.43;;;5.82;;
50104;SDS011;47690;39.202;-77.198;2022-07-23T05:46:05;5.90;;;5.30;;
50104;SDS011;47690;39.202;-77.198;2022-07-23T06:00:26;6.88;;;5.05;;
50104;SDS011;47690;39.202;-77.198;2022-07-23T06:05:42;5.20;;;4.70;;
50104;SDS011;47690;39.202;-77.198;2022-07-23T06:10:31;6.03;;;5.43;;
50104;SDS011;47690;39.202;-77.198;2022-07-23T06:14:48;6.10;;;5.07;;
50104;SDS011;47690;39.202;-77.198;2022-07-23T06:19:25;6.65;;;5.03;;
50104;SDS011;47690;39.202;-77.198;2022-07-23T06:24:18;5.45;;;4.93;;
50104;SDS011;47690;39.202;-77.198;2022-07-23T06:29:12;5.63;;;4.72;;
50104;SDS011;47690;39.202;-77.198;2022-07-23T06:38:59;5.60;;;5.10;;
50104;SDS011;47690;39.202;-77.198;2022-07-23T06:54:09;5.60;;;5.10;;
50104;SDS011;47690;39.202;-77.198;2022-07-23T06:58:30;5.82;;;5.20;;
50104;SDS011;47690;39.202;-77.198;2022-07-23T07:03:26;5.43;;;4.85;;
50104;SDS011;47690;39.202;-77.198;2022-07-23T07:21:37;6.03;;;5.43;;
50104;SDS011;47690;39.202;-77.198;2022-07-23T07:26:05;6.05;;;5.30;;
50104;SDS011;47690;39.202;-77.198;2022-07-23T07:34:13;5.95;;;5.40;;
50104;SDS011;47690;39.202;-77.198;2022-07-23T07:44:00;5.88;;;5.38;;
50104;SDS011;47690;39.202;-77.198;2022-07-23T07:48:49;6.28;;;5.70;;
50104;SDS011;47690;39.202;-77.198;2022-07-23T07:53:00;6.00;;;5.40;;
50104;SDS011;47690;39.202;-77.198;2022-07-23T07:57:38;5.57;;;5.07;;
50104;SDS011;47690;39.202;-77.198;2022-07-23T08:01:00;5.68;;;5.10;;
50104;SDS011;47690;39.202;-77.198;2022-07-23T08:03:31;6.22;;;5.63;;
50104;SDS011;47690;39.202;-77.198;2022-07-23T08:06:02;6.40;;;5.82;;
50104;SDS011;47690;39.202;-77.198;2022-07-23T08:08:31;6.47;;;5.88;;
50104;SDS011;47690;39.202;-77.198;2022-07-23T08:11:00;6.75;;;6.15;;
50104;SDS011;47690;39.202;-77.198;2022-07-23T08:13:29;7.00;;;6.30;;
50104;SDS011;47690;39.202;-77.198;2022-07-23T08:15:58;6.30;;;5.55;;
50104;SDS011;47690;39.202;-77.198;2022-07-23T08:18:27;6.82;;;6.13;;
50104;SDS011;47690;39.202;-77.198;2022-07-23T08:20:56;6.68;;;6.07;;
50104;SDS011;47690;39.202;-77.198;2022-07-23T08:23:25;6.50;;;5.90;;
50104;SDS011;47690;39.202;-77.198;2022-07-23T08:25:57;6.57;;;5.97;;
50104;SDS011;47690;39.202;-77.198;2022-07-23T08:28:28;6.32;;;5.72;;
50104;SDS011;47690;39.202;-77.198;2022-07-23T08:30:56;6.93;;;6.00;;
50104;SDS011;47690;39.202;-77.198;2022-07-23T08:33:25;6.88;;;6.18;;
50104;SDS011;47690;39.202;-77.198;2022-07-23T08:36:01;6.72;;;6.03;;
50104;SDS011;47690;39.202;-77.198;2022-07-23T08:38:32;6.63;;;5.95;;
50104;SDS011;47690;39.202;-77.198;2022-07-23T08:41:01;6.78;;;6.07;;
50104;SDS011;47690;39.202;-77.198;2022-07-23T08:43:32;6.63;;;6.03;;
50104;SDS011;47690;39.202;-77.198;2022-07-23T08:46:02;7.30;;;6.53;;
50104;SDS011;47690;39.202;-77.198;2022-07-23T08:48:32;8.20;;;6.07;;
50104;SDS011;47690;39.202;-77.198;2022-07-23T08:51:04;6.47;;;5.80;;
50104;SDS011;47690;39.202;-77.198;2022-07-23T08:53:34;6.97;;;5.43;;
50104;SDS011;47690;39.202;-77.198;2022-07-23T08:56:07;6.35;;;5.60;;
50104;SDS011;47690;39.202;-77.198;2022-07-23T08:58:38;6.05;;;5.45;;
50104;SDS011;47690;39.202;-77.198;2022-07-23T09:01:07;6.70;;;6.05;;
50104;SDS011;47690;39.202;-77.198;2022-07-23T09:03:36;6.85;;;6.18;;
50104;SDS011;47690;39.202;-77.198;2022-07-23T09:06:08;6.88;;;6.20;;
50104;SDS011;47690;39.202;-77.198;2022-07-23T09:08:38;7.32;;;5.70;;
50104;SDS011;47690;39.202;-77.198;2022-07-23T09:11:12;6.70;;;6.03;;
50104;SDS011;47690;39.202;-77.198;2022-07-23T09:13:42;6.18;;;5.63;;
50104;SDS011;47690;39.202;-77.198;2022-07-23T09:16:15;5.93;;;5.30;;
50104;SDS011;47690;39.202;-77.198;2022-07-23T09:18:54;6.63;;;5.88;;
50104;SDS011;47690;39.202;-77.198;2022-07-23T09:21:28;6.30;;;5.70;;
50104;SDS011;47690;39.202;-77.198;2022-07-23T09:24:01;6.97;;;6.03;;
50104;SDS011;47690;39.202;-77.198;2022-07-23T09:31:45;7.72;;;5.65;;
50104;SDS011;47690;39.202;-77.198;2022-07-23T09:36:42;7.60;;;4.95;;
50104;SDS011;47690;39.202;-77.198;2022-07-23T09:39:12;5.10;;;4.60;;
50104;SDS011;47690;39.202;-77.198;2022-07-23T09:41:42;6.10;;;5.18;;
50104;SDS011;47690;39.202;-77.198;2022-07-23T09:44:14;5.35;;;4.70;;
50104;SDS011;47690;39.202;-77.198;2022-07-23T09:52:34;5.70;;;5.10;;
50104;SDS011;47690;39.202;-77.198;2022-07-23T09:55:04;5.28;;;4.78;;
50104;SDS011;47690;39.202;-77.198;2022-07-23T09:57:33;5.65;;;5.15;;
50104;SDS011;47690;39.202;-77.198;2022-07-23T10:00:05;7.88;;;5.60;;
50104;SDS011;47690;39.202;-77.198;2022-07-23T10:02:34;6.35;;;5.75;;
50104;SDS011;47690;39.202;-77.198;2022-07-23T10:05:24;6.68;;;6.03;;
50104;SDS011;47690;39.202;-77.198;2022-07-23T10:08:15;6.15;;;5.57;;
50104;SDS011;47690;39.202;-77.198;2022-07-23T10:11:03;5.85;;;5.25;;
50104;SDS011;47690;39.202;-77.198;2022-07-23T10:13:46;6.50;;;5.15;;
50104;SDS011;47690;39.202;-77.198;2022-07-23T10:16:21;6.47;;;5.20;;
50104;SDS011;47690;39.202;-77.198;2022-07-23T10:18:54;6.13;;;5.53;;
50104;SDS011;47690;39.202;-77.198;2022-07-23T10:21:25;6.38;;;5.72;;
50104;SDS011;47690;39.202;-77.198;2022-07-23T10:26:35;6.82;;;5.75;;
50104;SDS011;47690;39.202;-77.198;2022-07-23T10:32:08;6.95;;;5.72;;
50104;SDS011;47690;39.202;-77.198;2022-07-23T10:34:44;6.07;;;5.40;;
50104;SDS011;47690;39.202;-77.198;2022-07-23T10:42:41;6.03;;;5.43;;
50104;SDS011;47690;39.202;-77.198;2022-07-23T10:45:26;6.25;;;5.65;;
50104;SDS011;47690;39.202;-77.198;2022-07-23T10:48:11;5.82;;;5.30;;
50104;SDS011;47690;39.202;-77.198;2022-07-23T10:50:42;6.60;;;4.90;;
50104;SDS011;47690;39.202;-77.198;2022-07-23T10:53:13;7.47;;;5.30;;
50104;SDS011;47690;39.202;-77.198;2022-07-23T10:55:51;6.03;;;5.43;;
50104;SDS011;47690;39.202;-77.198;2022-07-23T10:58:23;6.05;;;5.53;;
50104;SDS011;47690;39.202;-77.198;2022-07-23T11:01:02;6.00;;;5.40;;
50104;SDS011;47690;39.202;-77.198;2022-07-23T11:03:57;6.03;;;5.43;;
50104;SDS011;47690;39.202;-77.198;2022-07-23T11:09:27;5.43;;;4.93;;
50104;SDS011;47690;39.202;-77.198;2022-07-23T11:17:30;5.90;;;5.40;;
50104;SDS011;47690;39.202;-77.198;2022-07-23T11:22:56;5.80;;;5.28;;
50104;SDS011;47690;39.202;-77.198;2022-07-23T11:28:08;6.45;;;5.85;;
50104;SDS011;47690;39.202;-77.198;2022-07-23T11:30:44;5.97;;;5.40;;
50104;SDS011;47690;39.202;-77.198;2022-07-23T11:35:47;6.25;;;5.65;;
50104;SDS011;47690;39.202;-77.198;2022-07-23T11:38:20;7.68;;;5.82;;
50104;SDS011;47690;39.202;-77.198;2022-07-23T11:40:56;6.72;;;6.03;;
50104;SDS011;47690;39.202;-77.198;2022-07-23T11:43:26;6.65;;;6.05;;
50104;SDS011;47690;39.202;-77.198;2022-07-23T11:45:58;7.35;;;6.65;;
50104;SDS011;47690;39.202;-77.198;2022-07-23T11:48:29;6.57;;;5.97;;
50104;SDS011;47690;39.202;-77.198;2022-07-23T11:51:02;6.75;;;6.15;;
50104;SDS011;47690;39.202;-77.198;2022-07-23T11:53:33;7.32;;;6.32;;
50104;SDS011;47690;39.202;-77.198;2022-07-23T11:56:04;7.18;;;5.90;;
50104;SDS011;47690;39.202;-77.198;2022-07-23T11:58:34;6.40;;;5.80;;
50104;SDS011;47690;39.202;-77.198;2022-07-23T12:01:03;6.25;;;5.68;;
50104;SDS011;47690;39.202;-77.198;2022-07-23T12:03:34;7.05;;;6.35;;
50104;SDS011;47690;39.202;-77.198;2022-07-23T12:06:03;6.82;;;6.18;;
50104;SDS011;47690;39.202;-77.198;2022-07-23T12:08:33;6.82;;;6.13;;
50104;SDS011;47690;39.202;-77.198;2022-07-23T12:11:14;7.18;;;6.47;;
50104;SDS011;47690;39.202;-77.198;2022-07-23T12:13:57;6.85;;;6.20;;
50104;SDS011;47690;39.202;-77.198;2022-07-23T12:16:29;7.43;;;6.53;;
50104;SDS011;47690;39.202;-77.198;2022-07-23T12:19:00;7.07;;;6.38;;
50104;SDS011;47690;39.202;-77.198;2022-07-23T12:21:34;7.20;;;6.00;;
50104;SDS011;47690;39.202;-77.198;2022-07-23T12:24:31;6.72;;;6.13;;
50104;SDS011;47690;39.202;-77.198;2022-07-23T12:27:10;7.40;;;6.70;;
50104;SDS011;47690;39.202;-77.198;2022-07-23T12:29:42;6.82;;;6.20;;
50104;SDS011;47690;39.202;-77.198;2022-07-23T12:35:22;7.45;;;6.22;;
50104;SDS011;47690;39.202;-77.198;2022-07-23T12:37:58;6.72;;;6.13;;
50104;SDS011;47690;39.202;-77.198;2022-07-23T12:40:32;7.07;;;6.38;;
50104;SDS011;47690;39.202;-77.198;2022-07-23T12:46:10;7.38;;;6.68;;
50104;SDS011;47690;39.202;-77.198;2022-07-23T12:51:20;7.93;;;6.78;;
50104;SDS011;47690;39.202;-77.198;2022-07-23T12:53:52;7.38;;;6.25;;
50104;SDS011;47690;39.202;-77.198;2022-07-23T12:56:32;7.57;;;6.57;;
50104;SDS011;47690;39.202;-77.198;2022-07-23T13:01:34;7.55;;;6.85;;
50104;SDS011;47690;39.202;-77.198;2022-07-23T13:06:49;7.47;;;6.70;;
50104;SDS011;47690;39.202;-77.198;2022-07-23T13:09:52;7.17;;;6.20;;
50104;SDS011;47690;39.202;-77.198;2022-07-23T13:12:25;7.18;;;6.43;;
50104;SDS011;47690;39.202;-77.198;2022-07-23T13:14:54;8.05;;;6.82;;
50104;SDS011;47690;39.202;-77.198;2022-07-23T13:17:24;7.40;;;6.70;;
50104;SDS011;47690;39.202;-77.198;2022-07-23T13:19:58;7.75;;;6.85;;
50104;SDS011;47690;39.202;-77.198;2022-07-23T13:22:52;6.75;;;6.13;;
50104;SDS011;47690;39.202;-77.198;2022-07-23T13:25:22;6.90;;;6.20;;
50104;SDS011;47690;39.202;-77.198;2022-07-23T13:27:51;7.65;;;6.90;;
50104;SDS011;47690;39.202;-77.198;2022-07-23T13:30:20;7.13;;;6.43;;
50104;SDS011;47690;39.202;-77.198;2022-07-23T13:32:51;6.93;;;5.97;;
50104;SDS011;47690;39.202;-77.198;2022-07-23T13:38:22;6.50;;;5.80;;
50104;SDS011;47690;39.202;-77.198;2022-07-23T13:40:53;6.70;;;6.00;;
50104;SDS011;47690;39.202;-77.198;2022-07-23T13:43:25;7.20;;;6.35;;
50104;SDS011;47690;39.202;-77.198;2022-07-23T13:45:59;6.38;;;5.82;;
50104;SDS011;47690;39.202;-77.198;2022-07-23T13:48:30;6.55;;;5.95;;
50104;SDS011;47690;39.202;-77.198;2022-07-23T13:51:00;6.47;;;5.88;;
50104;SDS011;47690;39.202;-77.198;2022-07-23T13:53:28;6.28;;;5.68;;
50104;SDS011;47690;39.202;-77.198;2022-07-23T13:55:57;7.22;;;5.90;;
50104;SDS011;47690;39.202;-77.198;2022-07-23T13:58:26;6.35;;;5.75;;
50104;SDS011;47690;39.202;-77.198;2022-07-23T14:00:58;6.03;;;5.53;;
50104;SDS011;47690;39.202;-77.198;2022-07-23T14:03:50;5.85;;;5.35;;
50104;SDS011;47690;39.202;-77.198;2022-07-23T14:06:52;5.88;;;5.32;;
50104;SDS011;47690;39.202;-77.198;2022-07-23T14:09:58;5.47;;;4.97;;
50104;SDS011;47690;39.202;-77.198;2022-07-23T14:12:29;7.40;;;5.50;;
50104;SDS011;47690;39.202;-77.198;2022-07-23T14:15:02;5.30;;;4.80;;
50104;SDS011;47690;39.202;-77.198;2022-07-23T14:17:42;6.90;;;5.22;;
50104;SDS011;47690;39.202;-77.198;2022-07-23T14:20:18;5.75;;;5.25;;
50104;SDS011;47690;39.202;-77.198;2022-07-23T14:22:52;5.68;;;5.18;;
50104;SDS011;47690;39.202;-77.198;2022-07-23T14:25:34;5.78;;;5.13;;
50104;SDS011;47690;39.202;-77.198;2022-07-23T14:28:23;5.97;;;5.40;;
50104;SDS011;47690;39.202;-77.198;2022-07-23T14:31:10;5.60;;;5.10;;
50104;SDS011;47690;39.202;-77.198;2022-07-23T14:34:05;5.63;;;5.13;;
50104;SDS011;47690;39.202;-77.198;2022-07-23T14:40:58;5.82;;;4.55;;
50104;SDS011;47690;39.202;-77.198;2022-07-23T14:46:46;6.28;;;5.45;;
50104;SDS011;47690;39.202;-77.198;2022-07-23T14:49:15;6.03;;;5.40;;
50104;SDS011;47690;39.202;-77.198;2022-07-23T14:51:46;5.43;;;4.93;;
50104;SDS011;47690;39.202;-77.198;2022-07-23T14:54:27;5.57;;;5.07;;
50104;SDS011;47690;39.202;-77.198;2022-07-23T14:58:17;5.07;;;4.57;;
50104;SDS011;47690;39.202;-77.198;2022-07-23T15:01:20;5.70;;;5.13;;
50104;SDS011;47690;39.202;-77.198;2022-07-23T15:04:04;5.45;;;4.95;;
50104;SDS011;47690;39.202;-77.198;2022-07-23T15:06:57;5.85;;;5.30;;
50104;SDS011;47690;39.202;-77.198;2022-07-23T15:09:33;5.97;;;5.38;;
50104;SDS011;47690;39.202;-77.198;2022-07-23T15:12:05;6.10;;;5.50;;
50104;SDS011;47690;39.202;-77.198;2022-07-23T15:14:56;6.25;;;5.72;;
50104;SDS011;47690;39.202;-77.198;2022-07-23T15:17:52;5.40;;;4.90;;
50104;SDS011;47690;39.202;-77.198;2022-07-23T15:20:31;5.68;;;5.15;;
50104;SDS011;47690;39.202;-77.198;2022-07-23T15:23:41;5.63;;;5.07;;
50104;SDS011;47690;39.202;-77.198;2022-07-23T15:26:29;5.28;;;4.78;;
50104;SDS011;47690;39.202;-77.198;2022-07-23T15:28:58;5.75;;;5.25;;
50104;SDS011;47690;39.202;-77.198;2022-07-23T15:31:34;5.40;;;4.90;;
50104;SDS011;47690;39.202;-77.198;2022-07-23T15:34:03;6.22;;;5.47;;
50104;SDS011;47690;39.202;-77.198;2022-07-23T15:39:49;5.45;;;4.95;;
50104;SDS011;47690;39.202;-77.198;2022-07-23T15:42:24;5.93;;;5.35;;
50104;SDS011;47690;39.202;-77.198;2022-07-23T15:44:57;5.82;;;5.10;;
50104;SDS011;47690;39.202;-77.198;2022-07-23T15:47:34;5.40;;;4.88;;
50104;SDS011;47690;39.202;-77.198;2022-07-23T15:50:05;5.97;;;5.38;;
50104;SDS011;47690;39.202;-77.198;2022-07-23T15:52:55;5.50;;;5.03;;
50104;SDS011;47690;39.202;-77.198;2022-07-23T15:55:31;5.57;;;5.07;;
50104;SDS011;47690;39.202;-77.198;2022-07-23T15:58:18;5.72;;;4.63;;
50104;SDS011;47690;39.202;-77.198;2022-07-23T16:01:00;5.70;;;5.20;;
50104;SDS011;47690;39.202;-77.198;2022-07-23T16:03:51;7.93;;;4.95;;
50104;SDS011;47690;39.202;-77.198;2022-07-23T16:07:00;5.25;;;4.75;;
50104;SDS011;47690;39.202;-77.198;2022-07-23T16:09:59;6.20;;;5.57;;
50104;SDS011;47690;39.202;-77.198;2022-07-23T16:14:26;4.78;;;4.38;;
50104;SDS011;47690;39.202;-77.198;2022-07-23T16:18:30;4.85;;;4.43;;
50104;SDS011;47690;39.202;-77.198;2022-07-23T16:21:00;5.25;;;4.82;;
50104;SDS011;47690;39.202;-77.198;2022-07-23T16:23:38;5.78;;;4.68;;
50104;SDS011;47690;39.202;-77.198;2022-07-23T16:26:10;5.45;;;4.30;;
50104;SDS011;47690;39.202;-77.198;2022-07-23T16:28:42;5.78;;;5.22;;
50104;SDS011;47690;39.202;-77.198;2022-07-23T16:31:13;5.07;;;4.68;;
50104;SDS011;47690;39.202;-77.198;2022-07-23T16:33:43;5.85;;;4.78;;
50104;SDS011;47690;39.202;-77.198;2022-07-23T16:36:14;4.68;;;4.22;;
50104;SDS011;47690;39.202;-77.198;2022-07-23T16:38:45;4.95;;;4.38;;
50104;SDS011;47690;39.202;-77.198;2022-07-23T16:41:15;5.40;;;4.25;;
50104;SDS011;47690;39.202;-77.198;2022-07-23T16:43:45;5.28;;;4.78;;
50104;SDS011;47690;39.202;-77.198;2022-07-23T16:46:15;5.00;;;4.57;;
50104;SDS011;47690;39.202;-77.198;2022-07-23T16:48:45;6.15;;;4.72;;
50104;SDS011;47690;39.202;-77.198;2022-07-23T16:51:14;4.88;;;4.45;;
50104;SDS011;47690;39.202;-77.198;2022-07-23T16:57:04;4.55;;;4.15;;
50104;SDS011;47690;39.202;-77.198;2022-07-23T16:59:34;4.60;;;4.20;;
50104;SDS011;47690;39.202;-77.198;2022-07-23T17:02:03;4.72;;;4.32;;
50104;SDS011;47690;39.202;-77.198;2022-07-23T17:04:32;4.70;;;4.30;;
50104;SDS011;47690;39.202;-77.198;2022-07-23T17:07:28;4.93;;;4.20;;
50104;SDS011;47690;39.202;-77.198;2022-07-23T17:10:00;5.55;;;4.57;;
50104;SDS011;47690;39.202;-77.198;2022-07-23T17:12:29;4.70;;;4.30;;
50104;SDS011;47690;39.202;-77.198;2022-07-23T17:14:58;4.63;;;4.22;;
50104;SDS011;47690;39.202;-77.198;2022-07-23T17:17:34;4.70;;;4.30;;
50104;SDS011;47690;39.202;-77.198;2022-07-23T17:20:07;4.15;;;3.75;;
50104;SDS011;47690;39.202;-77.198;2022-07-23T17:22:38;4.72;;;4.22;;
50104;SDS011;47690;39.202;-77.198;2022-07-23T17:25:10;4.70;;;4.20;;
50104;SDS011;47690;39.202;-77.198;2022-07-23T17:27:57;4.93;;;4.03;;
50104;SDS011;47690;39.202;-77.198;2022-07-23T17:31:24;4.13;;;3.72;;
50104;SDS011;47690;39.202;-77.198;2022-07-23T17:33:54;4.85;;;3.97;;
50104;SDS011;47690;39.202;-77.198;2022-07-23T17:36:33;4.20;;;3.80;;
50104;SDS011;47690;39.202;-77.198;2022-07-23T17:39:23;3.85;;;3.55;;
50104;SDS011;47690;39.202;-77.198;2022-07-23T17:41:54;4.43;;;4.03;;
50104;SDS011;47690;39.202;-77.198;2022-07-23T17:44:25;5.00;;;4.18;;
50104;SDS011;47690;39.202;-77.198;2022-07-23T17:46:53;5.18;;;4.18;;
50104;SDS011;47690;39.202;-77.198;2022-07-23T17:49:23;4.80;;;4.40;;
50104;SDS011;47690;39.202;-77.198;2022-07-23T17:51:54;4.40;;;3.97;;
50104;SDS011;47690;39.202;-77.198;2022-07-23T17:54:24;5.60;;;4.30;;
50104;SDS011;47690;39.202;-77.198;2022-07-23T17:56:56;4.60;;;4.18;;
50104;SDS011;47690;39.202;-77.198;2022-07-23T17:59:33;6.45;;;3.97;;
50104;SDS011;47690;39.202;-77.198;2022-07-23T18:02:02;4.68;;;3.88;;
50104;SDS011;47690;39.202;-77.198;2022-07-23T18:04:31;4.50;;;4.10;;
50104;SDS011;47690;39.202;-77.198;2022-07-23T18:07:00;4.68;;;4.28;;
50104;SDS011;47690;39.202;-77.198;2022-07-23T18:09:28;4.47;;;4.07;;
50104;SDS011;47690;39.202;-77.198;2022-07-23T18:11:57;4.60;;;4.05;;
50104;SDS011;47690;39.202;-77.198;2022-07-23T18:14:26;4.60;;;4.18;;
50104;SDS011;47690;39.202;-77.198;2022-07-23T18:16:58;4.68;;;4.28;;
50104;SDS011;47690;39.202;-77.198;2022-07-23T18:19:26;4.45;;;4.05;;
50104;SDS011;47690;39.202;-77.198;2022-07-23T18:21:56;4.05;;;3.65;;
50104;SDS011;47690;39.202;-77.198;2022-07-23T18:24:27;4.70;;;3.90;;
50104;SDS011;47690;39.202;-77.198;2022-07-23T18:26:57;4.47;;;3.70;;
50104;SDS011;47690;39.202;-77.198;2022-07-23T18:29:26;4.75;;;4.20;;
50104;SDS011;47690;39.202;-77.198;2022-07-23T18:31:56;4.60;;;4.18;;
50104;SDS011;47690;39.202;-77.198;2022-07-23T18:34:28;4.78;;;3.88;;
50104;SDS011;47690;39.202;-77.198;2022-07-23T18:36:59;4.50;;;4.10;;
50104;SDS011;47690;39.202;-77.198;2022-07-23T18:39:30;4.55;;;4.15;;
50104;SDS011;47690;39.202;-77.198;2022-07-23T18:42:03;5.72;;;3.60;;
50104;SDS011;47690;39.202;-77.198;2022-07-23T18:44:50;4.35;;;3.95;;
50104;SDS011;47690;39.202;-77.198;2022-07-23T18:47:25;4.57;;;4.07;;
50104;SDS011;47690;39.202;-77.198;2022-07-23T18:50:25;4.30;;;3.90;;
50104;SDS011;47690;39.202;-77.198;2022-07-23T18:53:06;4.82;;;4.32;;
50104;SDS011;47690;39.202;-77.198;2022-07-23T18:55:38;5.93;;;4.07;;
50104;SDS011;47690;39.202;-77.198;2022-07-23T18:58:18;4.35;;;3.95;;
50104;SDS011;47690;39.202;-77.198;2022-07-23T19:00:51;4.72;;;4.20;;
50104;SDS011;47690;39.202;-77.198;2022-07-23T19:03:30;5.07;;;4.57;;
50104;SDS011;47690;39.202;-77.198;2022-07-23T19:06:03;4.57;;;4.18;;
50104;SDS011;47690;39.202;-77.198;2022-07-23T19:08:45;4.68;;;4.28;;
50104;SDS011;47690;39.202;-77.198;2022-07-23T19:11:15;4.88;;;4.25;;
50104;SDS011;47690;39.202;-77.198;2022-07-23T19:13:52;4.32;;;3.92;;
50104;SDS011;47690;39.202;-77.198;2022-07-23T19:16:23;4.75;;;4.35;;
50104;SDS011;47690;39.202;-77.198;2022-07-23T19:18:59;5.47;;;4.50;;
50104;SDS011;47690;39.202;-77.198;2022-07-23T19:21:42;5.32;;;4.82;;
50104;SDS011;47690;39.202;-77.198;2022-07-23T19:24:10;4.72;;;4.32;;
50104;SDS011;47690;39.202;-77.198;2022-07-23T19:26:42;5.18;;;4.57;;
50104;SDS011;47690;39.202;-77.198;2022-07-23T19:29:10;5.47;;;4.75;;
50104;SDS011;47690;39.202;-77.198;2022-07-23T19:31:42;6.20;;;4.22;;
50104;SDS011;47690;39.202;-77.198;2022-07-23T19:34:12;4.80;;;4.38;;
50104;SDS011;47690;39.202;-77.198;2022-07-23T19:36:42;6.65;;;4.60;;
50104;SDS011;47690;39.202;-77.198;2022-07-23T19:39:13;5.18;;;4.70;;
50104;SDS011;47690;39.202;-77.198;2022-07-23T19:41:43;4.68;;;4.28;;
50104;SDS011;47690;39.202;-77.198;2022-07-23T19:44:13;5.45;;;4.93;;
50104;SDS011;47690;39.202;-77.198;2022-07-23T19:46:43;5.72;;;5.03;;
50104;SDS011;47690;39.202;-77.198;2022-07-23T19:49:16;5.00;;;4.60;;
50104;SDS011;47690;39.202;-77.198;2022-07-23T19:51:44;4.97;;;4.53;;
50104;SDS011;47690;39.202;-77.198;2022-07-23T19:54:13;5.65;;;4.45;;
50104;SDS011;47690;39.202;-77.198;2022-07-23T19:56:59;4.95;;;4.53;;
50104;SDS011;47690;39.202;-77.198;2022-07-23T19:59:49;4.78;;;4.28;;
50104;SDS011;47690;39.202;-77.198;2022-07-23T20:02:22;4.68;;;4.28;;
50104;SDS011;47690;39.202;-77.198;2022-07-23T20:05:01;5.35;;;4.80;;
50104;SDS011;47690;39.202;-77.198;2022-07-23T20:07:51;5.13;;;4.50;;
50104;SDS011;47690;39.202;-77.198;2022-07-23T20:10:25;4.47;;;4.07;;
50104;SDS011;47690;39.202;-77.198;2022-07-23T20:13:50;4.40;;;4.00;;
50104;SDS011;47690;39.202;-77.198;2022-07-23T20:16:43;4.93;;;4.40;;
50104;SDS011;47690;39.202;-77.198;2022-07-23T20:19:23;4.70;;;4.25;;
50104;SDS011;47690;39.202;-77.198;2022-07-23T20:21:55;4.50;;;4.10;;
50104;SDS011;47690;39.202;-77.198;2022-07-23T20:24:25;4.53;;;4.10;;
50104;SDS011;47690;39.202;-77.198;2022-07-23T20:27:10;5.00;;;4.50;;
50104;SDS011;47690;39.202;-77.198;2022-07-23T20:29:54;4.30;;;3.90;;
50104;SDS011;47690;39.202;-77.198;2022-07-23T20:36:17;5.00;;;4.18;;
50104;SDS011;47690;39.202;-77.198;2022-07-23T20:38:50;4.22;;;3.88;;
50104;SDS011;47690;39.202;-77.198;2022-07-23T20:41:25;4.90;;;4.13;;
50104;SDS011;47690;39.202;-77.198;2022-07-23T20:43:55;5.20;;;4.35;;
50104;SDS011;47690;39.202;-77.198;2022-07-23T20:48:57;3.80;;;3.50;;
50104;SDS011;47690;39.202;-77.198;2022-07-23T20:54:23;3.80;;;3.50;;
50104;SDS011;47690;39.202;-77.198;2022-07-23T20:59:28;5.18;;;3.80;;
50104;SDS011;47690;39.202;-77.198;2022-07-23T21:02:02;3.97;;;3.58;;
50104;SDS011;47690;39.202;-77.198;2022-07-23T21:04:31;3.72;;;3.38;;
50104;SDS011;47690;39.202;-77.198;2022-07-23T21:07:01;4.20;;;3.50;;
50104;SDS011;47690;39.202;-77.198;2022-07-23T21:09:30;4.70;;;3.70;;
50104;SDS011;47690;39.202;-77.198;2022-07-23T21:12:06;4.80;;;3.53;;
50104;SDS011;47690;39.202;-77.198;2022-07-23T21:14:45;4.15;;;3.22;;
50104;SDS011;47690;39.202;-77.198;2022-07-23T21:17:23;3.88;;;3.47;;
50104;SDS011;47690;39.202;-77.198;2022-07-23T21:20:22;4.35;;;3.53;;
50104;SDS011;47690;39.202;-77.198;2022-07-23T21:22:53;3.88;;;3.28;;